createdAt,value
2018-06-21T00:00:06.444Z,7.23
2018-06-21T00:02:35.033Z,7.30
2018-06-21T00:05:03.615Z,7.60
2018-06-21T00:07:32.117Z,8.73
2018-06-21T00:10:00.665Z,7.27
2018-06-21T00:12:29.225Z,7.70
2018-06-21T00:14:57.824Z,7.77
2018-06-21T00:17:26.336Z,6.87
2018-06-21T00:19:54.872Z,7.37
2018-06-21T00:22:23.413Z,7.30
2018-06-21T00:24:51.965Z,6.53
2018-06-21T00:27:20.528Z,6.57
2018-06-21T00:29:48.709Z,6.80
2018-06-21T00:32:17.244Z,8.37
2018-06-21T00:34:45.842Z,8.70
2018-06-21T00:37:14.405Z,6.93
2018-06-21T00:39:42.937Z,8.10
2018-06-21T00:42:11.435Z,8.30
2018-06-21T00:44:39.991Z,7.80
2018-06-21T00:47:08.504Z,8.17
2018-06-21T00:49:37.016Z,7.50
2018-06-21T00:52:05.595Z,7.43
2018-06-21T00:54:34.165Z,7.30
2018-06-21T00:57:02.717Z,8.20
2018-06-21T00:59:31.297Z,7.43
2018-06-21T01:01:59.845Z,6.70
2018-06-21T01:04:28.409Z,7.10
2018-06-21T01:06:56.935Z,6.77
2018-06-21T01:09:25.484Z,7.20
2018-06-21T01:11:53.993Z,7.60
2018-06-21T01:14:22.488Z,7.10
2018-06-21T01:16:51.065Z,7.30
2018-06-21T01:19:19.599Z,7.50
2018-06-21T01:21:48.189Z,8.00
2018-06-21T01:24:16.689Z,7.10
2018-06-21T01:26:45.225Z,6.63
2018-06-21T01:29:13.792Z,7.20
2018-06-21T01:31:42.334Z,7.73
2018-06-21T01:34:10.848Z,7.20
2018-06-21T01:36:39.412Z,8.30
2018-06-21T01:39:09.223Z,8.00
2018-06-21T01:41:38.392Z,7.47
2018-06-21T01:44:07.381Z,7.90
2018-06-21T01:46:36.022Z,7.40
2018-06-21T01:49:04.551Z,5.97
2018-06-21T01:51:33.107Z,6.90
2018-06-21T01:54:01.708Z,7.17
2018-06-21T01:56:30.309Z,7.53
2018-06-21T01:58:58.844Z,7.20
2018-06-21T02:01:27.431Z,7.73
2018-06-21T02:03:55.983Z,7.07
2018-06-21T02:06:24.568Z,6.80
2018-06-21T02:08:53.127Z,8.30
2018-06-21T02:11:21.659Z,7.57
2018-06-21T02:13:50.188Z,8.23
2018-06-21T02:16:18.802Z,6.27
2018-06-21T02:18:47.357Z,6.83
2018-06-21T02:21:15.904Z,7.23
2018-06-21T02:23:44.442Z,7.03
2018-06-21T02:26:13.012Z,6.87
2018-06-21T02:28:41.598Z,7.60
2018-06-21T02:31:10.124Z,7.37
2018-06-21T02:33:38.672Z,6.70
2018-06-21T02:36:07.188Z,6.30
2018-06-21T02:38:35.797Z,7.90
2018-06-21T02:41:04.326Z,6.53
2018-06-21T02:43:32.913Z,6.73
2018-06-21T02:46:01.462Z,7.77
2018-06-21T02:48:29.956Z,7.43
2018-06-21T02:50:58.524Z,7.27
2018-06-21T02:53:27.084Z,6.73
2018-06-21T02:55:55.669Z,7.00
2018-06-21T02:58:24.504Z,7.60
2018-06-21T03:00:53.060Z,7.07
2018-06-21T03:03:21.577Z,6.37
2018-06-21T03:05:50.142Z,6.13
2018-06-21T03:08:18.723Z,5.80
2018-06-21T03:10:47.269Z,6.37
2018-06-21T03:13:15.800Z,5.80
2018-06-21T03:15:44.344Z,6.47
2018-06-21T03:18:12.908Z,6.70
2018-06-21T03:20:41.472Z,6.30
2018-06-21T03:23:10.054Z,7.07
2018-06-21T03:25:38.661Z,5.70
2018-06-21T03:28:07.201Z,5.53
2018-06-21T03:30:35.736Z,7.03
2018-06-21T03:33:04.261Z,6.70
2018-06-21T03:35:32.789Z,7.13
2018-06-21T03:38:01.608Z,6.80
2018-06-21T03:40:30.359Z,6.30
2018-06-21T03:42:58.979Z,6.90
2018-06-21T03:45:27.519Z,5.40
2018-06-21T03:47:56.048Z,5.80
2018-06-21T03:50:24.594Z,6.73
2018-06-21T03:52:53.107Z,6.63
2018-06-21T03:55:21.687Z,6.33
2018-06-21T03:57:50.225Z,6.80
2018-06-21T04:00:18.792Z,6.70
2018-06-21T04:02:47.343Z,7.00
2018-06-21T04:05:16.013Z,7.03
2018-06-21T04:07:44.621Z,7.57
2018-06-21T04:10:13.120Z,8.23
2018-06-21T04:12:41.652Z,8.60
2018-06-21T04:15:10.176Z,7.30
2018-06-21T04:17:38.739Z,8.00
2018-06-21T04:20:07.283Z,8.60
2018-06-21T04:22:35.813Z,6.83
2018-06-21T04:25:04.556Z,6.90
2018-06-21T04:27:33.209Z,8.77
2018-06-21T04:30:01.762Z,8.77
2018-06-21T04:32:30.383Z,7.20
2018-06-21T04:34:58.935Z,7.60
2018-06-21T04:37:27.472Z,7.70
2018-06-21T04:39:56.044Z,7.50
2018-06-21T04:42:24.562Z,8.10
2018-06-21T04:44:53.106Z,8.27
2018-06-21T04:47:21.645Z,8.50
2018-06-21T04:49:50.172Z,7.87
2018-06-21T04:52:18.738Z,7.07
2018-06-21T04:54:47.262Z,7.40
2018-06-21T04:57:15.803Z,6.97
2018-06-21T04:59:44.327Z,6.10
2018-06-21T05:02:12.862Z,7.83
2018-06-21T05:04:41.429Z,7.40
2018-06-21T05:07:09.954Z,8.00
2018-06-21T05:09:38.660Z,7.17
2018-06-21T05:12:07.199Z,7.50
2018-06-21T05:14:35.730Z,6.57
2018-06-21T05:17:04.348Z,6.60
2018-06-21T05:19:32.871Z,7.40
2018-06-21T05:22:01.453Z,6.77
2018-06-21T05:24:29.984Z,6.63
2018-06-21T05:26:58.504Z,6.77
2018-06-21T05:29:27.074Z,6.37
2018-06-21T05:31:55.606Z,5.87
2018-06-21T05:34:24.186Z,6.70
2018-06-21T05:36:52.716Z,5.20
2018-06-21T05:39:21.304Z,6.67
2018-06-21T05:41:49.868Z,6.63
2018-06-21T05:44:18.376Z,5.67
2018-06-21T05:46:46.958Z,6.43
2018-06-21T05:49:15.443Z,5.00
2018-06-21T05:51:43.978Z,4.93
2018-06-21T05:54:12.532Z,4.63
2018-06-21T05:56:41.078Z,4.83
2018-06-21T05:59:09.619Z,5.30
2018-06-21T06:01:38.171Z,4.50
2018-06-21T06:04:06.759Z,3.70
2018-06-21T06:06:35.329Z,4.50
2018-06-21T06:09:05.774Z,4.10
2018-06-21T06:11:34.318Z,4.00
2018-06-21T06:14:02.941Z,4.27
2018-06-21T06:16:31.506Z,4.20
2018-06-21T06:19:00.089Z,4.07
2018-06-21T06:21:28.662Z,3.87
2018-06-21T06:23:57.250Z,3.60
2018-06-21T06:26:25.792Z,3.70
2018-06-21T06:28:54.337Z,3.50
2018-06-21T06:31:22.527Z,3.67
2018-06-21T06:33:51.039Z,3.73
2018-06-21T06:36:19.610Z,3.13
2018-06-21T06:38:48.155Z,3.70
2018-06-21T06:41:16.727Z,3.73
2018-06-21T06:43:45.295Z,3.87
2018-06-21T06:46:13.869Z,3.70
2018-06-21T06:48:42.413Z,3.87
2018-06-21T06:51:11.068Z,4.40
2018-06-21T06:53:39.633Z,3.47
2018-06-21T06:56:08.214Z,3.47
2018-06-21T06:58:36.857Z,2.97
2018-06-21T07:01:05.457Z,2.90
2018-06-21T07:03:34.012Z,3.67
2018-06-21T07:06:02.548Z,3.17
2018-06-21T07:08:31.207Z,3.00
2018-06-21T07:10:59.733Z,3.67
2018-06-21T07:13:28.284Z,3.40
2018-06-21T07:15:56.828Z,3.67
2018-06-21T07:18:25.393Z,3.47
2018-06-21T07:20:53.930Z,2.33
2018-06-21T07:23:22.473Z,3.23
2018-06-21T07:25:51.366Z,3.27
2018-06-21T07:28:19.930Z,2.80
2018-06-21T07:30:48.485Z,2.80
2018-06-21T07:33:17.014Z,3.23
2018-06-21T07:35:45.571Z,3.00
2018-06-21T07:38:14.088Z,2.80
2018-06-21T07:40:42.601Z,3.03
2018-06-21T07:43:11.140Z,2.80
2018-06-21T07:45:39.632Z,3.00
2018-06-21T07:48:08.141Z,2.80
2018-06-21T07:50:36.669Z,3.67
2018-06-21T07:53:05.173Z,3.63
2018-06-21T07:55:33.712Z,3.50
2018-06-21T07:58:02.212Z,3.53
2018-06-21T08:00:30.771Z,3.30
2018-06-21T08:02:59.313Z,3.30
2018-06-21T08:05:27.907Z,2.97
2018-06-21T08:07:56.460Z,3.20
2018-06-21T08:10:25.007Z,2.97
2018-06-21T08:12:53.612Z,3.40
2018-06-21T08:15:22.120Z,3.20
2018-06-21T08:17:50.632Z,3.30
2018-06-21T08:20:19.188Z,3.50
2018-06-21T08:22:47.705Z,2.80
2018-06-21T08:25:16.241Z,2.73
2018-06-21T08:27:44.777Z,3.07
2018-06-21T08:30:13.322Z,2.90
2018-06-21T08:32:41.868Z,2.90
2018-06-21T08:35:10.442Z,3.03
2018-06-21T08:37:38.967Z,2.83
2018-06-21T08:40:07.543Z,2.70
2018-06-21T08:42:36.089Z,3.03
2018-06-21T08:45:04.660Z,2.97
2018-06-21T08:47:33.215Z,3.27
2018-06-21T08:50:01.781Z,3.03
2018-06-21T08:52:30.313Z,3.07
2018-06-21T08:54:58.840Z,2.63
2018-06-21T08:57:27.376Z,2.80
2018-06-21T08:59:55.922Z,3.20
2018-06-21T09:02:24.585Z,2.70
2018-06-21T09:04:53.139Z,2.83
2018-06-21T09:07:21.628Z,2.57
2018-06-21T09:09:50.192Z,3.10
2018-06-21T09:12:18.711Z,2.60
2018-06-21T09:14:47.966Z,2.70
2018-06-21T09:17:16.502Z,2.77
2018-06-21T09:19:45.030Z,2.63
2018-06-21T09:22:13.601Z,2.90
2018-06-21T09:24:42.150Z,2.43
2018-06-21T09:27:10.681Z,2.80
2018-06-21T09:29:39.235Z,3.07
2018-06-21T09:32:07.759Z,2.50
2018-06-21T09:34:36.311Z,2.50
2018-06-21T09:37:04.878Z,2.33
2018-06-21T09:39:38.760Z,2.47
2018-06-21T09:42:12.689Z,2.57
2018-06-21T09:44:46.498Z,2.73
2018-06-21T09:47:20.456Z,2.87
2018-06-21T09:49:48.988Z,2.97
2018-06-21T09:52:17.594Z,2.90
2018-06-21T09:54:46.155Z,2.67
2018-06-21T09:57:14.675Z,2.27
2018-06-21T09:59:43.212Z,2.43
2018-06-21T10:02:11.742Z,2.53
2018-06-21T10:04:40.248Z,2.50
2018-06-21T10:07:08.552Z,2.60
2018-06-21T10:09:37.040Z,2.40
2018-06-21T10:12:05.583Z,2.10
2018-06-21T10:14:34.075Z,2.93
2018-06-21T10:17:02.632Z,2.40
2018-06-21T10:19:31.218Z,2.87
2018-06-21T10:21:59.752Z,3.00
2018-06-21T10:24:28.318Z,2.97
2018-06-21T10:26:56.826Z,2.80
2018-06-21T10:29:25.359Z,2.33
2018-06-21T10:31:53.903Z,2.73
2018-06-21T10:34:22.413Z,2.67
2018-06-21T10:36:51.003Z,3.13
2018-06-21T10:39:19.539Z,3.00
2018-06-21T10:41:48.029Z,2.40
2018-06-21T10:44:16.632Z,2.23
2018-06-21T10:46:45.173Z,2.40
2018-06-21T10:49:13.777Z,2.53
2018-06-21T10:51:42.332Z,2.50
2018-06-21T10:54:10.860Z,3.20
2018-06-21T10:56:39.421Z,2.50
2018-06-21T10:59:07.941Z,2.70
2018-06-21T11:01:36.447Z,2.50
2018-06-21T11:04:05.002Z,3.37
2018-06-21T11:06:33.521Z,3.33
2018-06-21T11:09:02.084Z,2.87
2018-06-21T11:11:30.601Z,2.80
2018-06-21T11:13:59.159Z,3.00
2018-06-21T11:16:27.719Z,3.03
2018-06-21T11:18:56.230Z,3.00
2018-06-21T11:21:24.768Z,3.30
2018-06-21T11:23:53.318Z,2.63
2018-06-21T11:26:22.075Z,3.13
2018-06-21T11:28:50.258Z,2.47
2018-06-21T11:31:18.804Z,3.30
2018-06-21T11:33:47.607Z,2.43
2018-06-21T11:36:16.139Z,3.00
2018-06-21T11:38:44.670Z,2.70
2018-06-21T11:41:13.527Z,2.50
2018-06-21T11:43:42.033Z,3.03
2018-06-21T11:46:10.606Z,2.70
2018-06-21T11:48:39.142Z,2.67
2018-06-21T11:51:07.758Z,2.83
2018-06-21T11:53:36.252Z,4.73
2018-06-21T11:56:04.809Z,3.07
2018-06-21T11:58:33.461Z,3.40
2018-06-21T12:01:02.032Z,3.37
2018-06-21T12:03:30.614Z,3.40
2018-06-21T12:05:59.159Z,3.10
2018-06-21T12:08:27.698Z,2.90
2018-06-21T12:10:56.270Z,3.00
2018-06-21T12:13:24.799Z,3.53
2018-06-21T12:15:53.422Z,3.00
2018-06-21T12:18:21.994Z,3.37
2018-06-21T12:20:50.525Z,2.90
2018-06-21T12:23:19.099Z,3.97
2018-06-21T12:25:47.653Z,2.93
2018-06-21T12:28:16.252Z,3.50
2018-06-21T12:30:45.461Z,3.20
2018-06-21T12:33:13.663Z,3.60
2018-06-21T12:35:42.261Z,3.13
2018-06-21T12:38:10.901Z,3.43
2018-06-21T12:40:39.409Z,3.40
2018-06-21T12:43:07.953Z,3.57
2018-06-21T12:45:36.463Z,2.83
2018-06-21T12:48:05.388Z,3.70
2018-06-21T12:50:33.875Z,3.10
2018-06-21T12:53:02.416Z,3.80
2018-06-21T12:55:30.980Z,3.50
2018-06-21T12:57:59.557Z,3.57
2018-06-21T13:00:28.130Z,3.53
2018-06-21T13:02:56.636Z,3.10
2018-06-21T13:05:24.878Z,3.60
2018-06-21T13:07:53.400Z,3.60
2018-06-21T13:10:33.113Z,3.97
2018-06-21T13:13:17.504Z,3.50
2018-06-21T13:15:46.326Z,3.20
2018-06-21T13:18:14.846Z,4.00
2018-06-21T13:20:43.411Z,3.70
2018-06-21T13:23:12.021Z,3.43
2018-06-21T13:25:40.593Z,3.70
2018-06-21T13:28:09.149Z,3.37
2018-06-21T13:30:37.735Z,3.37
2018-06-21T13:33:06.477Z,3.37
2018-06-21T13:35:35.086Z,3.20
2018-06-21T13:38:03.711Z,4.27
2018-06-21T13:40:32.469Z,3.27
2018-06-21T13:43:01.046Z,3.73
2018-06-21T13:45:29.595Z,3.80
2018-06-21T13:47:58.141Z,3.27
2018-06-21T13:50:26.737Z,2.93
2018-06-21T13:52:55.328Z,3.90
2018-06-21T13:55:23.890Z,4.27
2018-06-21T13:57:52.446Z,3.60
2018-06-21T14:00:21.041Z,3.20
2018-06-21T14:02:49.618Z,3.13
2018-06-21T14:05:18.217Z,3.00
2018-06-21T14:07:46.804Z,2.77
2018-06-21T14:10:15.360Z,3.10
2018-06-21T14:12:43.867Z,3.07
2018-06-21T14:15:12.392Z,2.77
2018-06-21T14:17:40.967Z,2.70
2018-06-21T14:20:09.504Z,2.33
2018-06-21T14:22:38.058Z,3.07
2018-06-21T14:25:06.595Z,3.10
2018-06-21T14:27:35.112Z,2.70
2018-06-21T14:30:03.784Z,2.73
2018-06-21T14:32:32.266Z,2.47
2018-06-21T14:35:00.868Z,2.53
2018-06-21T14:37:29.405Z,2.83
2018-06-21T14:39:57.973Z,2.63
2018-06-21T14:42:26.588Z,2.63
2018-06-21T14:44:55.084Z,2.33
2018-06-21T14:47:23.635Z,2.43
2018-06-21T14:49:52.190Z,2.20
2018-06-21T14:52:20.791Z,2.60
2018-06-21T14:54:49.304Z,3.30
2018-06-21T14:57:17.987Z,2.90
2018-06-21T14:59:46.482Z,2.60
2018-06-21T15:02:15.057Z,2.80
2018-06-21T15:04:43.585Z,2.60
2018-06-21T15:07:12.145Z,2.90
2018-06-21T15:09:40.624Z,2.50
2018-06-21T15:12:09.188Z,2.87
2018-06-21T15:14:37.769Z,2.80
2018-06-21T15:17:06.336Z,3.17
2018-06-21T15:19:34.875Z,2.93
2018-06-21T15:22:03.445Z,2.80
2018-06-21T15:24:31.981Z,2.70
2018-06-21T15:27:00.501Z,3.50
2018-06-21T15:29:29.139Z,3.40
2018-06-21T15:31:57.759Z,2.97
2018-06-21T15:34:26.326Z,3.13
2018-06-21T15:36:54.852Z,3.27
2018-06-21T15:39:24.543Z,2.80
2018-06-21T15:41:53.046Z,2.47
2018-06-21T15:44:21.621Z,3.33
2018-06-21T15:46:50.193Z,2.30
2018-06-21T15:49:18.449Z,2.40
2018-06-21T15:51:46.985Z,3.07
2018-06-21T15:54:15.560Z,2.87
2018-06-21T15:56:44.139Z,2.97
2018-06-21T15:59:12.659Z,2.67
2018-06-21T16:01:41.161Z,3.70
2018-06-21T16:04:09.671Z,2.83
2018-06-21T16:06:38.255Z,3.37
2018-06-21T16:09:08.263Z,4.20
2018-06-21T16:11:36.876Z,4.07
2018-06-21T16:14:05.461Z,4.37
2018-06-21T16:16:34.101Z,3.50
2018-06-21T16:19:02.696Z,3.30
2018-06-21T16:21:31.216Z,3.30
2018-06-21T16:23:59.800Z,3.53
2018-06-21T16:26:28.338Z,3.10
2018-06-21T16:28:56.905Z,3.80
2018-06-21T16:31:25.439Z,4.27
2018-06-21T16:33:54.208Z,2.80
2018-06-21T16:36:23.779Z,3.03
2018-06-21T16:38:52.391Z,3.60
2018-06-21T16:41:20.905Z,2.97
2018-06-21T16:43:49.505Z,2.90
2018-06-21T16:46:18.035Z,3.43
2018-06-21T16:48:46.658Z,2.90
2018-06-21T16:51:15.197Z,3.60
2018-06-21T16:53:43.736Z,2.17
2018-06-21T16:56:12.287Z,2.37
2018-06-21T16:58:40.864Z,2.47
2018-06-21T17:01:09.522Z,2.80
2018-06-21T17:03:38.085Z,2.80
2018-06-21T17:06:06.637Z,2.60
2018-06-21T17:08:35.210Z,2.60
2018-06-21T17:11:03.795Z,3.97
2018-06-21T17:13:32.326Z,2.60
2018-06-21T17:16:00.861Z,2.40
2018-06-21T17:18:29.403Z,2.90
2018-06-21T17:20:57.946Z,2.77
2018-06-21T17:23:26.482Z,2.90
2018-06-21T17:25:55.033Z,2.83
2018-06-21T17:28:23.588Z,3.20
2018-06-21T17:30:52.157Z,3.50
2018-06-21T17:33:20.696Z,2.50
2018-06-21T17:35:49.245Z,2.60
2018-06-21T17:38:17.835Z,2.50
2018-06-21T17:40:46.391Z,3.03
2018-06-21T17:43:15.021Z,3.20
2018-06-21T17:45:43.739Z,3.00
2018-06-21T17:48:12.361Z,2.83
2018-06-21T17:50:40.924Z,2.90
2018-06-21T17:53:09.425Z,3.10
2018-06-21T17:55:37.959Z,2.50
2018-06-21T17:58:06.641Z,3.33
2018-06-21T18:00:35.197Z,3.57
2018-06-21T18:03:03.832Z,3.33
2018-06-21T18:05:32.319Z,2.60
2018-06-21T18:08:00.962Z,9.47
2018-06-21T18:10:29.492Z,6.70
2018-06-21T18:12:58.155Z,6.37
2018-06-21T18:15:26.764Z,4.47
2018-06-21T18:17:55.378Z,4.73
2018-06-21T18:20:23.954Z,16.07
2018-06-21T18:22:52.585Z,5.00
2018-06-21T18:25:21.157Z,8.93
2018-06-21T18:27:50.527Z,10.93
2018-06-21T18:30:19.081Z,9.03
2018-06-21T18:32:47.669Z,7.77
2018-06-21T18:35:16.217Z,5.30
2018-06-21T18:37:44.744Z,4.17
2018-06-21T18:40:13.300Z,5.87
2018-06-21T18:42:41.857Z,4.80
2018-06-21T18:45:10.453Z,5.30
2018-06-21T18:47:39.253Z,3.60
2018-06-21T18:50:07.784Z,4.00
2018-06-21T18:52:36.371Z,5.27
2018-06-21T18:55:04.927Z,4.97
2018-06-21T18:57:33.919Z,11.80
2018-06-21T19:00:02.500Z,8.53
2018-06-21T19:02:31.004Z,4.90
2018-06-21T19:04:59.578Z,4.73
2018-06-21T19:07:30.032Z,4.70
2018-06-21T19:10:05.818Z,2.90
2018-06-21T19:12:34.688Z,3.37
2018-06-21T19:15:03.608Z,3.03
2018-06-21T19:17:32.149Z,3.90
2018-06-21T19:20:00.753Z,4.70
2018-06-21T19:22:29.239Z,3.13
2018-06-21T19:24:57.728Z,2.70
2018-06-21T19:27:26.296Z,3.67
2018-06-21T19:29:54.808Z,2.53
2018-06-21T19:32:23.376Z,4.70
2018-06-21T19:34:51.860Z,2.87
2018-06-21T19:37:20.395Z,3.30
2018-06-21T19:39:48.908Z,3.00
2018-06-21T19:42:17.382Z,3.70
2018-06-21T19:44:45.916Z,3.00
2018-06-21T19:47:14.465Z,3.63
2018-06-21T19:49:43.023Z,4.00
2018-06-21T19:52:11.608Z,3.57
2018-06-21T19:54:40.133Z,3.60
2018-06-21T19:57:08.707Z,3.80
2018-06-21T19:59:37.229Z,3.90
2018-06-21T20:02:05.807Z,3.87
2018-06-21T20:04:35.221Z,5.20
2018-06-21T20:07:03.900Z,4.50
2018-06-21T20:09:32.462Z,4.20
2018-06-21T20:12:00.985Z,4.33
2018-06-21T20:14:29.558Z,4.00
2018-06-21T20:16:58.098Z,4.40
2018-06-21T20:19:26.629Z,4.50
2018-06-21T20:21:55.176Z,4.10
2018-06-21T20:24:23.747Z,3.67
2018-06-21T20:26:52.291Z,4.60
2018-06-21T20:29:21.490Z,3.70
2018-06-21T20:31:50.064Z,3.70
2018-06-21T20:34:18.621Z,3.50
2018-06-21T20:36:47.179Z,3.53
2018-06-21T20:39:15.730Z,3.67
2018-06-21T20:41:44.414Z,3.03
2018-06-21T20:44:13.021Z,3.00
2018-06-21T20:46:41.521Z,3.03
2018-06-21T20:49:10.040Z,3.40
2018-06-21T20:51:38.619Z,2.33
2018-06-21T20:54:07.204Z,3.20
2018-06-21T20:56:35.745Z,3.10
2018-06-21T20:59:04.369Z,2.40
2018-06-21T21:01:32.912Z,3.17
2018-06-21T21:04:01.455Z,2.77
2018-06-21T21:06:29.955Z,2.40
2018-06-21T21:08:58.486Z,2.30
2018-06-21T21:11:27.029Z,2.33
2018-06-21T21:13:55.553Z,2.67
2018-06-21T21:16:24.103Z,2.90
2018-06-21T21:18:52.602Z,2.70
2018-06-21T21:21:21.160Z,2.67
2018-06-21T21:23:49.675Z,3.23
2018-06-21T21:26:18.214Z,4.13
2018-06-21T21:28:46.830Z,3.87
2018-06-21T21:31:15.395Z,4.03
2018-06-21T21:33:43.940Z,4.10
2018-06-21T21:36:12.501Z,5.17
2018-06-21T21:38:41.054Z,4.87
2018-06-21T21:41:09.601Z,4.77
2018-06-21T21:43:38.120Z,5.90
2018-06-21T21:46:06.665Z,5.20
2018-06-21T21:48:35.171Z,6.43
2018-06-21T21:51:03.784Z,5.50
2018-06-21T21:53:32.321Z,7.10
2018-06-21T21:56:00.858Z,6.27
2018-06-21T21:58:29.428Z,6.00
2018-06-21T22:00:59.854Z,6.27
2018-06-21T22:03:28.392Z,5.73
2018-06-21T22:05:56.879Z,5.70
2018-06-21T22:08:25.432Z,6.60
2018-06-21T22:10:53.648Z,6.80
2018-06-21T22:13:22.181Z,7.17
2018-06-21T22:15:50.757Z,6.17
2018-06-21T22:18:19.340Z,5.70
2018-06-21T22:20:47.885Z,6.47
2018-06-21T22:23:16.489Z,6.80
2018-06-21T22:25:45.020Z,7.10
2018-06-21T22:28:13.580Z,7.20
2018-06-21T22:30:42.119Z,6.60
2018-06-21T22:33:10.672Z,7.30
2018-06-21T22:35:39.206Z,7.30
2018-06-21T22:38:07.754Z,6.10
2018-06-21T22:40:36.276Z,4.90
2018-06-21T22:43:04.841Z,4.83
2018-06-21T22:45:33.406Z,4.43
2018-06-21T22:48:02.035Z,4.67
2018-06-21T22:50:30.544Z,4.70
2018-06-21T22:52:59.247Z,3.70
2018-06-21T22:55:27.690Z,4.20
2018-06-21T22:57:56.252Z,3.23
2018-06-21T23:00:24.856Z,3.47
2018-06-21T23:02:53.399Z,3.03
2018-06-21T23:05:21.964Z,2.83
2018-06-21T23:07:50.505Z,3.90
2018-06-21T23:10:19.026Z,2.63
2018-06-21T23:12:47.565Z,3.07
2018-06-21T23:15:16.135Z,2.60
2018-06-21T23:17:44.632Z,3.40
2018-06-21T23:20:13.147Z,3.00
2018-06-21T23:22:41.700Z,2.93
2018-06-21T23:25:10.239Z,2.50
2018-06-21T23:27:38.751Z,3.20
2018-06-21T23:30:07.281Z,2.47
2018-06-21T23:32:35.847Z,2.53
2018-06-21T23:35:04.447Z,3.37
2018-06-21T23:37:32.964Z,2.57
2018-06-21T23:40:01.488Z,2.50
2018-06-21T23:42:29.991Z,2.57
2018-06-21T23:44:58.505Z,2.17
2018-06-21T23:47:27.031Z,2.97
2018-06-21T23:49:55.589Z,2.70
2018-06-21T23:52:24.122Z,2.50
2018-06-21T23:54:52.605Z,2.37
2018-06-21T23:57:21.152Z,2.50
2018-06-21T23:59:49.711Z,2.43
